Time;durP1;ratioP1;P1;durP2;ratioP2;P2;SDS_P1;SDS_P2;PMS_P1;PMS_P2;Temp;Humidity;BMP_temperature;BMP_pressure;BME280_temperature;BME280_humidity;BME280_pressure;Samples;Min_cycle;Max_cycle;Signal;HPM_P1;HPM_P2
2021/08/17 00:03:27;;;;;;;3.58;1.17;;;13.10;99.90;;;;;;4353885;36;20507;-76
2021/08/17 00:07:34;;;;;;;7.72;1.63;;;13.90;99.90;;;;;;4353922;36;20713;-76
2021/08/17 00:11:36;;;;;;;2.63;1.25;;;13.10;99.90;;;;;;4371628;36;20042;-75
2021/08/17 00:15:38;;;;;;;3.70;1.40;;;13.10;99.90;;;;;;4354177;36;20035;-75
2021/08/17 00:19:43;;;;;;;7.40;1.60;;;13.20;99.90;;;;;;4350997;36;20051;-75
2021/08/17 00:23:45;;;;;;;4.85;1.48;;;13.10;99.90;;;;;;4372147;36;20046;-78
2021/08/17 00:27:47;;;;;;;2.90;1.20;;;13.20;99.90;;;;;;4353402;36;20593;-76
2021/08/17 00:31:50;;;;;;;5.45;1.25;;;13.10;99.90;;;;;;4354477;36;20679;-75
2021/08/17 00:35:52;;;;;;;;;;;13.10;99.90;;;;;;4370588;36;20102;-77
2021/08/17 00:39:54;;;;;;;2.38;1.08;;;13.30;99.80;;;;;;4352071;36;19954;-74
2021/08/17 00:43:56;;;;;;;2.22;1.17;;;13.10;99.90;;;;;;4350507;36;20138;-75
2021/08/17 00:47:58;;;;;;;3.67;1.30;;;13.10;99.90;;;;;;4369145;36;20042;-75
2021/08/17 00:52:03;;;;;;;2.40;1.45;;;13.20;99.90;;;;;;4353228;36;20056;-75
2021/08/17 00:56:06;;;;;;;3.55;1.48;;;13.20;99.90;;;;;;4353369;36;20061;-75
2021/08/17 01:00:09;;;;;;;3.30;1.27;;;13.20;99.90;;;;;;4370231;36;20038;-75
2021/08/17 01:04:11;;;;;;;5.22;1.70;;;13.20;99.90;;;;;;4351800;36;20046;-74
2021/08/17 01:08:13;;;;;;;;;;;13.00;99.90;;;;;;4354993;36;20034;-74
2021/08/17 01:12:15;;;;;;;4.97;1.70;;;13.20;99.80;;;;;;4348791;36;20001;-74
2021/08/17 01:16:22;;;;;;;3.10;1.75;;;13.10;99.90;;;;;;4352657;36;20568;-74
2021/08/17 01:20:25;;;;;;;8.73;2.08;;;13.10;99.90;;;;;;4370958;36;20537;-75
2021/08/17 01:24:27;;;;;;;4.45;1.98;;;13.10;99.90;;;;;;4355110;36;20038;-75
2021/08/17 01:28:29;;;;;;;11.38;2.20;;;13.10;99.90;;;;;;4351818;36;20165;-74
2021/08/17 01:32:31;;;;;;;;;;;13.10;99.90;;;;;;4367882;36;20064;-74
2021/08/17 01:36:33;;;;;;;5.17;2.10;;;13.10;99.90;;;;;;4350331;36;19950;-75
2021/08/17 01:40:35;;;;;;;4.57;1.90;;;13.10;99.90;;;;;;4351017;36;20524;-75
2021/08/17 01:44:37;;;;;;;11.45;2.50;;;13.10;99.90;;;;;;4367224;36;20022;-74
2021/08/17 01:48:40;;;;;;;8.88;3.05;;;13.10;99.90;;;;;;4349959;36;20038;-74
2021/08/17 01:52:42;;;;;;;5.25;1.90;;;13.10;99.90;;;;;;4348819;36;20177;-75
2021/08/17 01:56:44;;;;;;;8.93;2.05;;;13.20;99.90;;;;;;4367857;36;20046;-75
2021/08/17 02:00:46;;;;;;;7.50;2.25;;;13.20;99.90;;;;;;4349896;36;20105;-74
2021/08/17 02:04:48;;;;;;;;;;;13.20;99.90;;;;;;4355805;36;20042;-75
2021/08/17 02:08:50;;;;;;;9.73;2.23;;;13.20;99.90;;;;;;4374038;36;19981;-78
2021/08/17 02:12:52;;;;;;;7.65;2.17;;;13.10;99.90;;;;;;4356527;36;20991;-77
2021/08/17 02:16:54;;;;;;;4.78;1.63;;;13.50;99.90;;;;;;4355307;36;21023;-77
2021/08/17 02:21:00;;;;;;;7.13;2.00;;;13.20;99.90;;;;;;4376118;36;20050;-75
2021/08/17 02:25:02;;;;;;;7.22;1.88;;;13.20;99.90;;;;;;4356113;36;20070;-76
2021/08/17 02:29:04;;;;;;;9.75;2.15;;;13.20;99.90;;;;;;4357350;36;20062;-76
2021/08/17 02:33:07;;;;;;;4.68;2.20;;;13.20;99.90;;;;;;4376663;36;20042;-77
2021/08/17 02:37:09;;;;;;;5.18;1.77;;;13.20;99.90;;;;;;4357470;36;20039;-76
2021/08/17 02:41:11;;;;;;;6.63;1.70;;;13.20;99.90;;;;;;4355040;36;20174;-77
2021/08/17 02:45:13;;;;;;;;;;;13.20;99.90;;;;;;4375821;36;20034;-77
2021/08/17 02:49:15;;;;;;;7.43;1.80;;;13.20;99.90;;;;;;4362903;36;19938;-76
2021/08/17 02:53:17;;;;;;;8.43;1.67;;;13.20;99.90;;;;;;4380670;36;20034;-78
2021/08/17 02:57:19;;;;;;;7.88;2.30;;;13.20;99.90;;;;;;4354459;36;20496;-77
2021/08/17 03:01:21;;;;;;;6.00;1.40;;;12.90;99.90;;;;;;4356204;36;20066;-76
2021/08/17 03:05:24;;;;;;;12.23;1.83;;;13.10;99.90;;;;;;4378126;36;20065;-76
2021/08/17 03:09:26;;;;;;;9.18;1.42;;;13.20;99.90;;;;;;4359099;36;20038;-76
2021/08/17 03:13:28;;;;;;;6.10;1.40;;;13.50;99.90;;;;;;4358066;36;20034;-76
2021/08/17 03:17:30;;;;;;;7.65;1.45;;;13.10;99.90;;;;;;4371746;36;20035;-75
2021/08/17 03:21:33;;;;;;;7.68;1.40;;;13.10;99.90;;;;;;4355550;36;21042;-76
2021/08/17 03:25:35;;;;;;;7.20;1.30;;;13.10;99.90;;;;;;4351097;36;20041;-76
2021/08/17 03:29:37;;;;;;;;;;;13.10;99.90;;;;;;4378433;36;20618;-77
2021/08/17 03:33:39;;;;;;;5.17;1.30;;;13.00;99.90;;;;;;4356273;36;20332;-77
2021/08/17 03:37:41;;;;;;;;;;;13.00;99.90;;;;;;4349679;36;20046;-75
2021/08/17 03:41:43;;;;;;;8.47;1.60;;;13.00;99.90;;;;;;4368778;36;19950;-77
2021/08/17 03:45:45;;;;;;;7.38;1.70;;;13.00;99.90;;;;;;4349537;36;20030;-75
2021/08/17 03:49:46;;;;;;;7.95;2.15;;;12.80;99.90;;;;;;4360960;36;20034;-77
2021/08/17 03:53:48;;;;;;;10.60;1.83;;;13.00;99.90;;;;;;4376895;36;20030;-77
2021/08/17 03:57:50;;;;;;;10.95;1.95;;;13.10;99.90;;;;;;4351062;36;20061;-76
2021/08/17 04:01:53;;;;;;;16.35;3.63;;;13.00;99.90;;;;;;4351546;36;20042;-76
2021/08/17 04:05:55;;;;;;;11.93;2.05;;;13.00;99.90;;;;;;4371448;36;20030;-75
2021/08/17 04:09:58;;;;;;;11.40;2.58;;;13.00;99.90;;;;;;4351906;36;20038;-77
2021/08/17 04:14:00;;;;;;;15.00;2.65;;;13.20;99.90;;;;;;4358391;36;20083;-77
2021/08/17 04:18:02;;;;;;;20.45;3.65;;;13.10;99.90;;;;;;4372811;36;20677;-77
2021/08/17 04:22:04;;;;;;;20.13;3.40;;;13.10;99.90;;;;;;4350857;36;20057;-75
2021/08/17 04:26:06;;;;;;;14.77;2.85;;;13.20;99.90;;;;;;4356714;36;20038;-75
2021/08/17 04:30:09;;;;;;;18.45;4.05;;;13.20;99.90;;;;;;4375880;31;20501;-74
2021/08/17 04:34:11;;;;;;;17.25;4.25;;;13.30;99.90;;;;;;4357133;36;20805;-75
2021/08/17 04:38:13;;;;;;;;;;;13.40;99.90;;;;;;4357894;36;20046;-74
2021/08/17 04:42:15;;;;;;;29.47;5.37;;;13.40;99.90;;;;;;4370885;36;20567;-75
2021/08/17 04:46:17;;;;;;;22.38;3.85;;;13.80;99.90;;;;;;4353651;36;20038;-76
2021/08/17 04:50:20;;;;;;;25.65;3.97;;;13.70;99.90;;;;;;4374859;36;20034;-76
2021/08/17 04:54:22;;;;;;;21.75;4.40;;;13.90;99.90;;;;;;4358285;36;20026;-76
2021/08/17 04:58:24;;;;;;;21.05;4.28;;;14.00;99.90;;;;;;4358866;36;20685;-77
2021/08/17 05:02:26;;;;;;;28.73;5.05;;;14.30;99.90;;;;;;4375644;36;20034;-76
2021/08/17 05:06:28;;;;;;;;;;;13.80;99.90;;;;;;4356581;36;20041;-75
2021/08/17 05:10:30;;;;;;;19.40;3.97;;;13.90;99.90;;;;;;4354604;36;19973;-75
2021/08/17 05:14:32;;;;;;;27.77;3.80;;;14.00;99.90;;;;;;4365111;36;20827;-77
2021/08/17 05:18:35;;;;;;;17.02;3.67;;;14.10;99.90;;;;;;4351387;36;20041;-75
2021/08/17 05:22:36;;;;;;;23.67;3.42;;;14.20;99.90;;;;;;4352812;36;20464;-75
2021/08/17 05:26:38;;;;;;;;;;;14.20;99.90;;;;;;4363097;36;20042;-75
2021/08/17 05:30:40;;;;;;;17.43;3.17;;;14.30;99.90;;;;;;4348147;36;20479;-74
2021/08/17 05:34:42;;;;;;;25.20;3.13;;;14.30;99.90;;;;;;4345593;36;20033;-72
2021/08/17 05:38:44;;;;;;;19.60;3.95;;;14.40;99.90;;;;;;4363766;36;20042;-72
2021/08/17 05:42:46;;;;;;;20.92;3.08;;;14.50;99.90;;;;;;4342341;36;20068;-72
2021/08/17 05:46:48;;;;;;;15.82;3.88;;;14.60;99.90;;;;;;4346123;36;20049;-73
2021/08/17 05:50:50;;;;;;;19.70;3.50;;;14.60;99.90;;;;;;4361287;36;20094;-72
2021/08/17 05:54:52;;;;;;;19.15;3.67;;;14.80;99.90;;;;;;4347151;36;20813;-71
2021/08/17 05:58:54;;;;;;;;;;;14.80;99.90;;;;;;4351069;36;20600;-75
2021/08/17 06:02:56;;;;;;;17.83;3.57;;;14.90;99.90;;;;;;4363779;36;19952;-73
2021/08/17 06:06:58;;;;;;;19.20;3.35;;;15.00;99.90;;;;;;4344976;36;20046;-71
2021/08/17 06:11:00;;;;;;;;;;;15.10;99.90;;;;;;4344534;36;20788;-72
2021/08/17 06:15:02;;;;;;;18.50;3.10;;;15.20;99.90;;;;;;4361714;36;20042;-71
2021/08/17 06:19:04;;;;;;;20.60;3.55;;;15.40;99.90;;;;;;4340851;36;21021;-71
2021/08/17 06:23:06;;;;;;;;;;;15.50;99.90;;;;;;4342529;36;20526;-71
2021/08/17 06:27:08;;;;;;;22.00;3.40;;;15.70;99.90;;;;;;4367643;36;19946;-72
2021/08/17 06:31:24;;;;;;;18.73;3.25;;;15.70;99.90;;;;;;4339383;36;20035;-72
2021/08/17 06:35:26;;;;;;;23.83;3.72;;;15.80;99.90;;;;;;4361675;36;20055;-72
2021/08/17 06:39:28;;;;;;;17.35;3.80;;;16.10;99.90;;;;;;4341526;36;20054;-72
2021/08/17 06:43:30;;;;;;;19.27;3.20;;;16.20;99.90;;;;;;4346965;36;20035;-72
2021/08/17 06:47:32;;;;;;;;;;;16.30;99.90;;;;;;4367966;36;20035;-72
2021/08/17 06:51:34;;;;;;;14.50;3.33;;;16.40;99.90;;;;;;4349676;36;19957;-72
2021/08/17 06:55:36;;;;;;;;;;;16.40;99.90;;;;;;4348360;36;20069;-72
2021/08/17 06:59:38;;;;;;;21.67;3.50;;;16.50;99.90;;;;;;4363426;36;19974;-72
2021/08/17 07:03:40;;;;;;;15.85;3.72;;;16.50;99.90;;;;;;4342278;36;20061;-72
2021/08/17 07:07:42;;;;;;;;;;;16.50;99.90;;;;;;4343729;36;20122;-73
2021/08/17 07:11:44;;;;;;;16.90;2.97;;;16.60;99.90;;;;;;4367591;36;20430;-72
2021/08/17 07:15:46;;;;;;;15.02;3.15;;;16.80;99.90;;;;;;4350733;36;20157;-72
2021/08/17 07:19:49;;;;;;;12.95;3.08;;;16.90;99.90;;;;;;4350314;36;20038;-71
2021/08/17 07:23:51;;;;;;;22.38;4.75;;;17.10;99.70;;;;;;4362232;36;20035;-72
2021/08/17 07:27:53;;;;;;;24.23;3.00;;;17.00;99.90;;;;;;4342904;36;20567;-72
2021/08/17 07:31:55;;;;;;;21.58;3.22;;;17.20;99.80;;;;;;4341337;36;20044;-73
2021/08/17 07:35:57;;;;;;;12.25;2.75;;;17.20;99.90;;;;;;4361219;36;20035;-71
2021/08/17 07:39:59;;;;;;;14.23;3.45;;;17.30;99.60;;;;;;4341644;36;20494;-71
2021/08/17 07:44:02;;;;;;;14.68;2.92;;;17.50;99.40;;;;;;4341385;36;20125;-72
2021/08/17 07:48:05;;;;;;;15.68;2.97;;;17.40;99.40;;;;;;4360937;36;20048;-72
2021/08/17 07:52:07;;;;;;;19.70;2.92;;;17.50;99.40;;;;;;4341054;36;20110;-72
2021/08/17 07:56:09;;;;;;;;;;;17.50;99.40;;;;;;4341517;36;20444;-72
2021/08/17 08:00:13;;;;;;;16.40;2.63;;;17.60;99.70;;;;;;4358567;36;20988;-72
2021/08/17 08:04:15;;;;;;;14.55;3.15;;;17.60;99.40;;;;;;4451197;36;20573;-72
2021/08/17 08:08:17;;;;;;;;;;;17.70;99.30;;;;;;4368034;36;20081;-71
2021/08/17 08:12:19;;;;;;;16.45;3.15;;;17.70;99.30;;;;;;4349839;36;20460;-73
2021/08/17 08:16:21;;;;;;;13.38;3.30;;;17.80;99.00;;;;;;4350369;36;20042;-73
2021/08/17 08:20:24;;;;;;;13.15;2.30;;;17.80;99.10;;;;;;4367558;36;20553;-72
2021/08/17 08:24:26;;;;;;;14.95;2.53;;;17.90;98.40;;;;;;4351818;36;20046;-77
2021/08/17 08:28:28;;;;;;;10.15;2.00;;;18.30;98.30;;;;;;4352767;36;20502;-76
2021/08/17 08:32:30;;;;;;;;;;;18.20;98.10;;;;;;4369387;36;20676;-75
2021/08/17 08:36:32;;;;;;;11.40;2.65;;;18.50;97.70;;;;;;4350605;36;19997;-75
2021/08/17 08:40:34;;;;;;;;;;;18.60;97.80;;;;;;4350727;36;20082;-75
2021/08/17 08:44:36;;;;;;;9.13;2.47;;;18.80;97.60;;;;;;4368819;36;20054;-76
2021/08/17 08:48:38;;;;;;;12.75;2.60;;;18.80;97.50;;;;;;4352218;36;20065;-74
2021/08/17 08:52:41;;;;;;;13.80;2.97;;;19.10;97.50;;;;;;4352179;36;21111;-74
2021/08/17 08:56:44;;;;;;;19.27;3.25;;;18.90;97.20;;;;;;4370105;36;20034;-75
2021/08/17 09:00:46;;;;;;;11.90;2.80;;;18.90;97.30;;;;;;4351722;36;20064;-74
2021/08/17 09:04:51;;;;;;;11.68;2.47;;;18.80;97.40;;;;;;4351636;36;20893;-75
2021/08/17 09:09:08;;;;;;;14.80;2.63;;;18.60;97.00;;;;;;4370637;36;20113;-75
2021/08/17 09:13:10;;;;;;;12.35;2.10;;;18.80;96.80;;;;;;4350271;36;20035;-76
2021/08/17 09:17:12;;;;;;;;;;;19.30;96.60;;;;;;4352157;36;20094;-76
2021/08/17 09:21:34;;;;;;;14.45;2.72;;;19.20;95.80;;;;;;4368930;36;20057;-74
2021/08/17 09:25:36;;;;;;;11.52;2.88;;;19.20;96.40;;;;;;4352567;36;20129;-75
2021/08/17 09:29:40;;;;;;;9.40;2.30;;;19.30;95.80;;;;;;4371831;36;20876;-76
2021/08/17 09:33:45;;;;;;;11.88;2.70;;;19.60;95.90;;;;;;4352275;36;20030;-75
2021/08/17 09:38:06;;;;;;;11.90;2.92;;;19.60;95.80;;;;;;4351479;36;20043;-76
2021/08/17 09:42:14;;;;;;;10.50;2.65;;;19.60;95.10;;;;;;4370407;36;20224;-75
2021/08/17 09:46:26;;;;;;;12.57;2.60;;;19.70;95.10;;;;;;4351117;36;20023;-76
2021/08/17 09:50:33;;;;;;;14.25;2.80;;;19.70;95.80;;;;;;4369292;36;20086;-75
2021/08/17 09:54:44;;;;;;;14.32;3.10;;;19.70;95.70;;;;;;4351208;36;20098;-75
2021/08/17 09:58:48;;;;;;;10.13;2.65;;;19.90;95.00;;;;;;4350988;36;20549;-76
2021/08/17 10:02:50;;;;;;;18.77;3.25;;;20.10;95.40;;;;;;4369363;36;20069;-77
2021/08/17 10:06:57;;;;;;;12.13;3.05;;;19.90;95.30;;;;;;4352735;36;20102;-77
2021/08/17 10:11:00;;;;;;;11.95;3.42;;;19.80;95.30;;;;;;4349144;36;20023;-75
2021/08/17 10:15:04;;;;;;;9.90;2.72;;;19.70;96.00;;;;;;4368680;36;20038;-76
2021/08/17 10:19:07;;;;;;;12.48;2.80;;;19.70;95.90;;;;;;4351040;31;20675;-76
2021/08/17 10:23:12;;;;;;;11.20;2.67;;;19.80;95.90;;;;;;4351779;36;20046;-77
2021/08/17 10:27:15;;;;;;;11.13;2.83;;;20.20;94.90;;;;;;4369053;36;20557;-77
2021/08/17 10:31:20;;;;;;;13.75;2.88;;;19.60;95.00;;;;;;4352747;36;20030;-75
2021/08/17 10:35:29;;;;;;;10.52;2.42;;;20.60;94.80;;;;;;4367741;36;20098;-76
2021/08/17 10:39:31;;;;;;;8.07;1.90;;;20.60;94.40;;;;;;4349985;36;20046;-75
2021/08/17 10:43:33;;;;;;;8.40;2.13;;;20.60;94.20;;;;;;4351104;36;20130;-75
2021/08/17 10:47:35;;;;;;;;;;;20.40;93.90;;;;;;4369093;36;20044;-77
2021/08/17 10:51:36;;;;;;;12.55;2.35;;;20.30;93.90;;;;;;4350813;36;19950;-76
2021/08/17 10:55:38;;;;;;;10.63;2.00;;;20.40;94.40;;;;;;4353297;36;20038;-75
2021/08/17 10:59:42;;;;;;;7.32;1.92;;;20.50;93.80;;;;;;4369992;36;20034;-75
2021/08/17 11:03:50;;;;;;;9.80;2.53;;;20.50;94.40;;;;;;4355851;36;20533;-77
2021/08/17 11:07:53;;;;;;;12.02;2.08;;;20.20;94.60;;;;;;4355636;36;20030;-76
2021/08/17 11:11:58;;;;;;;12.23;2.45;;;20.10;95.20;;;;;;4373876;36;20054;-75
2021/08/17 11:16:12;;;;;;;15.00;3.35;;;20.10;95.30;;;;;;4355284;36;20066;-76
2021/08/17 11:20:16;;;;;;;8.48;2.20;;;20.10;95.50;;;;;;4364003;36;20402;-75
2021/08/17 11:24:20;;;;;;;14.77;3.45;;;20.30;95.20;;;;;;4355434;36;20038;-77
2021/08/17 11:28:24;;;;;;;12.60;3.42;;;20.50;95.10;;;;;;4352815;36;20027;-76
2021/08/17 11:32:30;;;;;;;11.25;3.08;;;20.70;94.30;;;;;;4374213;36;20928;-75
2021/08/17 11:36:32;;;;;;;10.38;2.72;;;20.70;95.00;;;;;;4353487;36;20579;-76
2021/08/17 11:40:34;;;;;;;10.70;2.60;;;20.60;94.80;;;;;;4351352;36;20050;-76
2021/08/17 11:44:36;;;;;;;11.07;2.58;;;20.80;94.40;;;;;;4369848;36;20038;-75
2021/08/17 11:48:38;;;;;;;9.60;1.85;;;20.90;94.10;;;;;;4352183;36;20164;-76
2021/08/17 11:52:40;;;;;;;;;;;20.80;93.90;;;;;;4356975;36;20033;-78
2021/08/17 11:56:42;;;;;;;6.28;1.98;;;20.70;94.20;;;;;;4373358;36;19954;-76
2021/08/17 12:00:47;;;;;;;8.05;2.30;;;20.70;94.60;;;;;;4348907;36;20046;-75
2021/08/17 12:05:04;;;;;;;11.88;2.50;;;20.90;94.20;;;;;;4349826;36;20035;-76
2021/08/17 12:09:20;;;;;;;7.38;1.98;;;20.80;93.60;;;;;;4368634;36;20497;-75
2021/08/17 12:13:25;;;;;;;11.82;2.30;;;20.90;93.60;;;;;;4350939;36;20045;-75
2021/08/17 12:17:27;;;;;;;8.23;2.25;;;20.90;93.70;;;;;;4367875;36;20043;-75
2021/08/17 12:21:31;;;;;;;15.60;2.40;;;21.10;93.50;;;;;;4349596;36;20109;-75
2021/08/17 12:25:34;;;;;;;12.60;3.38;;;21.20;93.20;;;;;;4351176;36;20037;-75
2021/08/17 12:29:40;;;;;;;13.95;2.10;;;21.10;94.00;;;;;;4369421;36;20042;-75
2021/08/17 12:33:50;;;;;;;7.20;1.73;;;21.20;93.10;;;;;;4350973;36;20045;-75
2021/08/17 12:37:52;;;;;;;9.75;2.00;;;21.10;93.00;;;;;;4352354;36;20038;-75
2021/08/17 12:42:02;;;;;;;9.65;1.98;;;21.00;93.10;;;;;;4370228;36;20080;-75
2021/08/17 12:46:15;;;;;;;7.15;2.00;;;21.20;93.10;;;;;;4348874;36;20043;-75
2021/08/17 12:50:17;;;;;;;10.73;2.57;;;21.20;93.00;;;;;;4334049;36;3009071;-75
2021/08/17 12:54:19;;;;;;;7.20;2.17;;;21.00;93.30;;;;;;4352654;36;20565;-75
2021/08/17 12:58:21;;;;;;;;;;;20.70;93.80;;;;;;4350269;36;20965;-75
2021/08/17 13:02:24;;;;;;;8.45;1.83;;;20.60;93.10;;;;;;4369598;36;19938;-75
2021/08/17 13:06:26;;;;;;;9.77;2.08;;;20.50;93.70;;;;;;4351243;36;20035;-74
2021/08/17 13:10:31;;;;;;;8.95;2.00;;;20.50;92.90;;;;;;4349761;36;20065;-74
2021/08/17 13:14:33;;;;;;;10.45;2.13;;;20.50;92.80;;;;;;4368708;36;21061;-75
2021/08/17 13:18:35;;;;;;;12.50;2.17;;;20.60;93.10;;;;;;4350670;36;20035;-74
2021/08/17 13:22:37;;;;;;;;;;;20.30;94.00;;;;;;4351172;36;20039;-75
2021/08/17 13:26:39;;;;;;;10.50;2.30;;;20.20;94.10;;;;;;4368917;36;19939;-74
2021/08/17 13:30:41;;;;;;;14.13;2.88;;;20.10;93.90;;;;;;4352264;36;20037;-75
2021/08/17 13:34:43;;;;;;;15.90;3.00;;;20.00;94.30;;;;;;4352173;36;20038;-77
2021/08/17 13:38:45;;;;;;;;;;;20.10;94.30;;;;;;4371163;36;20595;-74
2021/08/17 13:42:47;;;;;;;9.00;1.92;;;20.10;93.80;;;;;;4353191;36;19955;-74
2021/08/17 13:46:48;;;;;;;;;;;19.90;93.50;;;;;;4352202;36;20049;-74
2021/08/17 13:50:51;;;;;;;8.88;2.08;;;20.20;93.80;;;;;;4371910;31;20555;-76
2021/08/17 13:54:52;;;;;;;10.05;2.15;;;20.30;93.30;;;;;;4350041;36;20144;-75
2021/08/17 13:58:55;;;;;;;13.65;2.63;;;20.40;93.20;;;;;;4352172;36;20038;-75
2021/08/17 14:02:56;;;;;;;10.18;2.42;;;20.40;93.50;;;;;;4369636;36;20038;-75
2021/08/17 14:06:59;;;;;;;9.55;2.85;;;20.40;93.40;;;;;;4352902;36;20435;-75
2021/08/17 14:11:01;;;;;;;11.10;2.53;;;20.60;92.90;;;;;;4351757;36;20069;-75
2021/08/17 14:15:03;;;;;;;9.70;2.78;;;20.60;92.80;;;;;;4370586;36;20035;-77
2021/08/17 14:19:05;;;;;;;8.00;2.25;;;20.70;92.40;;;;;;4353268;36;20034;-75
2021/08/17 14:23:07;;;;;;;11.85;2.35;;;20.70;92.40;;;;;;4350529;36;20069;-74
2021/08/17 14:27:09;;;;;;;12.15;2.13;;;20.60;92.60;;;;;;4373104;36;20094;-75
2021/08/17 14:31:11;;;;;;;10.63;2.20;;;20.50;92.70;;;;;;4354248;36;20038;-75
2021/08/17 14:35:13;;;;;;;;;;;20.40;92.90;;;;;;4354957;36;20037;-74
2021/08/17 14:39:15;;;;;;;10.88;2.30;;;20.30;93.00;;;;;;4373115;36;19962;-75
2021/08/17 14:43:17;;;;;;;;;;;20.20;93.30;;;;;;4355545;36;20041;-75
2021/08/17 14:47:19;;;;;;;12.30;2.50;;;20.00;93.40;;;;;;4356783;36;19962;-76
2021/08/17 14:51:21;;;;;;;11.50;2.60;;;20.00;93.40;;;;;;4355431;36;20040;-76
2021/08/17 14:55:23;;;;;;;11.05;2.40;;;20.00;93.30;;;;;;4355415;36;20063;-75
2021/08/17 14:59:25;;;;;;;;;;;20.00;93.00;;;;;;4373799;36;20038;-75
2021/08/17 15:03:27;;;;;;;9.68;1.92;;;19.70;93.30;;;;;;4353832;36;20037;-75
2021/08/17 15:07:29;;;;;;;7.75;2.10;;;19.60;93.20;;;;;;4354861;36;20065;-75
2021/08/17 15:11:31;;;;;;;7.35;1.80;;;19.70;92.80;;;;;;4371797;36;20045;-75
2021/08/17 15:15:33;;;;;;;;;;;19.70;92.40;;;;;;4354808;36;20037;-76
2021/08/17 15:19:35;;;;;;;6.55;1.98;;;19.60;91.60;;;;;;4356674;36;20476;-75
2021/08/17 15:23:37;;;;;;;6.05;1.50;;;19.60;92.60;;;;;;4373726;36;20045;-75
2021/08/17 15:27:40;;;;;;;5.68;1.20;;;19.60;92.00;;;;;;4354904;36;20065;-75
2021/08/17 15:31:44;;;;;;;7.65;2.05;;;19.60;92.00;;;;;;4353551;36;20094;-76
2021/08/17 15:35:46;;;;;;;8.88;1.60;;;19.70;92.40;;;;;;4371020;36;20031;-74
2021/08/17 15:39:48;;;;;;;9.18;1.70;;;19.70;92.30;;;;;;4351369;36;20125;-77
2021/08/17 15:43:51;;;;;;;8.20;2.03;;;19.70;92.40;;;;;;4352312;36;20042;-74
2021/08/17 15:47:52;;;;;;;;;;;19.60;92.40;;;;;;4370402;36;20576;-74
2021/08/17 15:51:56;;;;;;;7.93;2.20;;;19.50;92.70;;;;;;4351535;36;20535;-74
2021/08/17 15:55:58;;;;;;;;;;;19.40;92.80;;;;;;4352821;36;20034;-75
2021/08/17 16:00:00;;;;;;;9.52;2.20;;;19.30;92.20;;;;;;4370482;36;19947;-75
2021/08/17 16:04:13;;;;;;;10.02;2.15;;;19.20;93.20;;;;;;4353980;36;20314;-74
2021/08/17 16:08:15;;;;;;;9.63;2.22;;;19.10;93.30;;;;;;4352919;36;20596;-73
2021/08/17 16:12:17;;;;;;;14.70;2.55;;;19.10;93.00;;;;;;4372281;36;20069;-77
2021/08/17 16:16:20;;;;;;;10.68;2.33;;;19.10;93.10;;;;;;4354489;36;20054;-75
2021/08/17 16:20:24;;;;;;;11.18;2.30;;;19.10;93.30;;;;;;4371690;36;20043;-74
2021/08/17 16:24:27;;;;;;;8.82;2.30;;;19.00;93.50;;;;;;4351522;36;20098;-74
2021/08/17 16:28:29;;;;;;;9.70;2.05;;;18.90;93.50;;;;;;4353620;36;20562;-74
2021/08/17 16:32:31;;;;;;;11.73;2.88;;;18.90;93.80;;;;;;4370975;36;20046;-74
2021/08/17 16:36:33;;;;;;;;;;;18.90;93.80;;;;;;4351647;36;20039;-74
2021/08/17 16:40:36;;;;;;;10.43;2.13;;;19.00;93.70;;;;;;4350689;36;19950;-75
2021/08/17 16:44:40;;;;;;;12.05;2.10;;;19.00;93.10;;;;;;4369216;36;20626;-74
2021/08/17 16:48:42;;;;;;;11.18;2.00;;;19.00;93.20;;;;;;4353669;36;20378;-74
2021/08/17 16:52:45;;;;;;;;;;;19.00;93.30;;;;;;4350983;36;20069;-73
2021/08/17 16:56:47;;;;;;;11.43;3.20;;;18.80;93.60;;;;;;4371451;36;19950;-75
2021/08/17 17:00:49;;;;;;;;;;;18.80;93.90;;;;;;4353165;36;20035;-74
2021/08/17 17:04:54;;;;;;;9.20;2.70;;;18.70;94.00;;;;;;4351185;36;19947;-74
2021/08/17 17:08:55;;;;;;;;;;;18.50;94.20;;;;;;4364921;36;20141;-72
2021/08/17 17:12:58;;;;;;;9.38;2.33;;;18.50;94.20;;;;;;4348215;36;19977;-73
2021/08/17 17:16:59;;;;;;;;;;;18.50;94.30;;;;;;4350960;36;20064;-73
2021/08/17 17:21:01;;;;;;;10.90;3.15;;;18.50;94.30;;;;;;4366442;36;19947;-73
2021/08/17 17:25:04;;;;;;;;;;;18.40;94.50;;;;;;4349914;36;20042;-73
2021/08/17 17:29:08;;;;;;;;;;;18.30;94.40;;;;;;4350719;36;19973;-72
2021/08/17 17:33:10;;;;;;;12.25;2.42;;;18.30;94.30;;;;;;4368897;36;19950;-73
2021/08/17 17:37:12;;;;;;;9.82;2.13;;;18.30;94.30;;;;;;4352224;36;20043;-73
2021/08/17 17:41:15;;;;;;;8.93;2.25;;;18.30;94.20;;;;;;4351099;36;21050;-72
2021/08/17 17:45:17;;;;;;;10.80;2.55;;;18.30;94.30;;;;;;4370335;36;20042;-72
2021/08/17 17:49:19;;;;;;;;;;;18.30;94.20;;;;;;4352250;36;20041;-72
2021/08/17 17:53:21;;;;;;;14.40;2.80;;;18.30;94.20;;;;;;4368696;36;20346;-73
2021/08/17 17:57:23;;;;;;;10.00;2.72;;;18.30;94.20;;;;;;4353597;36;20066;-74
2021/08/17 18:01:25;;;;;;;10.15;2.38;;;18.00;94.20;;;;;;4351773;36;20034;-74
2021/08/17 18:05:27;;;;;;;8.05;2.40;;;18.10;94.60;;;;;;4370888;36;20469;-74
2021/08/17 18:09:29;;;;;;;10.98;3.30;;;18.10;94.40;;;;;;4384181;36;20623;-74
2021/08/17 18:13:32;;;;;;;;;;;18.20;94.40;;;;;;4349924;36;20041;-73
2021/08/17 18:17:34;;;;;;;13.05;3.20;;;18.20;94.40;;;;;;4366354;36;19984;-73
2021/08/17 18:21:36;;;;;;;;;;;18.10;94.50;;;;;;4350944;36;20050;-74
2021/08/17 18:25:38;;;;;;;12.27;3.10;;;18.00;94.40;;;;;;4350094;36;19950;-74
2021/08/17 18:29:43;;;;;;;12.82;3.10;;;18.00;95.10;;;;;;4368202;36;20020;-74
2021/08/17 18:33:45;;;;;;;14.77;3.60;;;18.00;95.60;;;;;;4349123;36;20041;-73
2021/08/17 18:37:47;;;;;;;11.23;3.22;;;17.80;96.00;;;;;;4350193;36;20129;-73
2021/08/17 18:41:49;;;;;;;15.10;3.17;;;17.80;96.00;;;;;;4368394;36;20038;-73
2021/08/17 18:45:54;;;;;;;17.50;3.70;;;17.70;96.20;;;;;;4351603;36;20029;-73
2021/08/17 18:50:17;;;;;;;;;;;18.10;96.40;;;;;;4352887;36;20030;-72
2021/08/17 18:54:20;;;;;;;13.82;3.78;;;17.70;96.10;;;;;;4369551;36;19950;-73
2021/08/17 18:58:22;;;;;;;13.10;3.53;;;17.50;96.40;;;;;;4352730;36;20042;-73
2021/08/17 19:02:26;;;;;;;12.68;3.90;;;17.50;96.50;;;;;;4370620;36;20038;-72
2021/08/17 19:06:28;;;;;;;11.35;3.40;;;17.40;96.60;;;;;;4351927;36;20044;-72
2021/08/17 19:10:30;;;;;;;;;;;17.30;96.50;;;;;;4352349;36;20036;-72
2021/08/17 19:14:33;;;;;;;13.10;3.13;;;17.30;96.20;;;;;;4371461;36;20794;-72
2021/08/17 19:18:39;;;;;;;21.20;3.35;;;17.30;96.80;;;;;;4352704;36;20035;-71
2021/08/17 19:22:44;;;;;;;11.50;3.72;;;17.20;96.90;;;;;;4352697;36;20065;-73
2021/08/17 19:26:46;;;;;;;12.57;3.15;;;17.20;97.30;;;;;;4371749;36;20153;-72
2021/08/17 19:30:48;;;;;;;;;;;16.90;97.10;;;;;;4353681;36;20026;-72
2021/08/17 19:34:51;;;;;;;11.43;3.00;;;17.00;97.40;;;;;;4353229;36;19950;-72
2021/08/17 19:38:54;;;;;;;12.20;4.03;;;17.00;97.20;;;;;;4372111;36;20086;-72
2021/08/17 19:42:57;;;;;;;11.35;3.83;;;17.00;97.60;;;;;;4353423;36;20874;-72
2021/08/17 19:46:59;;;;;;;18.98;4.22;;;16.90;97.80;;;;;;4353959;36;20038;-73
2021/08/17 19:51:01;;;;;;;11.10;3.65;;;16.90;97.80;;;;;;4371910;36;20098;-72
2021/08/17 19:55:03;;;;;;;;;;;16.80;97.70;;;;;;4354178;36;20034;-73
2021/08/17 19:59:05;;;;;;;18.67;3.60;;;16.80;97.10;;;;;;4354177;36;21713;-73
2021/08/17 20:03:07;;;;;;;;;;;16.90;97.70;;;;;;4372046;36;20038;-72
2021/08/17 20:07:10;;;;;;;12.63;3.00;;;16.80;97.30;;;;;;4353816;36;20051;-72
2021/08/17 20:11:12;;;;;;;;;;;16.80;97.60;;;;;;4353781;36;20030;-72
2021/08/17 20:15:14;;;;;;;17.38;3.38;;;16.70;97.40;;;;;;4371006;36;19961;-72
2021/08/17 20:19:15;;;;;;;13.75;3.47;;;16.70;97.50;;;;;;4353024;36;20066;-72
2021/08/17 20:23:18;;;;;;;13.85;3.70;;;16.60;97.40;;;;;;4353474;36;20114;-72
2021/08/17 20:27:20;;;;;;;15.25;3.38;;;16.60;97.50;;;;;;4372118;36;20065;-73
2021/08/17 20:31:23;;;;;;;11.27;2.78;;;16.60;97.50;;;;;;4352768;36;20035;-73
2021/08/17 20:35:25;;;;;;;11.80;3.00;;;16.60;97.40;;;;;;4371340;36;20375;-73
2021/08/17 20:39:27;;;;;;;;;;;16.60;97.30;;;;;;4354219;36;20080;-73
2021/08/17 20:43:29;;;;;;;;;;;16.60;97.20;;;;;;4352184;36;20859;-73
2021/08/17 20:47:32;;;;;;;13.60;2.55;;;16.40;96.80;;;;;;4370892;36;19973;-72
2021/08/17 20:51:35;;;;;;;13.82;3.20;;;16.40;96.80;;;;;;4354198;36;20517;-72
2021/08/17 20:55:37;;;;;;;8.02;2.20;;;16.50;96.60;;;;;;4351796;36;20164;-73
2021/08/17 20:59:39;;;;;;;;;;;16.50;96.50;;;;;;4371350;36;20071;-73
2021/08/17 21:03:42;;;;;;;7.30;2.00;;;16.40;96.40;;;;;;4352517;36;20042;-73
2021/08/17 21:07:44;;;;;;;7.68;2.40;;;16.40;96.40;;;;;;4352505;36;20065;-72
2021/08/17 21:11:46;;;;;;;;;;;16.40;96.40;;;;;;4371800;36;20050;-73
2021/08/17 21:15:48;;;;;;;10.18;2.42;;;16.30;96.30;;;;;;4354480;36;19942;-72
2021/08/17 21:19:49;;;;;;;;;;;16.20;96.50;;;;;;4353787;36;20038;-72